Time;durP1;ratioP1;P1;durP2;ratioP2;P2;SDS_P1;SDS_P2;PMS_P1;PMS_P2;Temp;Humidity;BMP_temperature;BMP_pressure;BME280_temperature;BME280_humidity;BME280_pressure;Samples;Min_cycle;Max_cycle;Signal;HPM_P1;HPM_P2
2022/08/03 00:01:42;;;;;;;77.80;73.63;;;;;;;21.78;66.73;96792.53;5054808;28;20261;-68
2022/08/03 00:04:09;;;;;;;63.65;59.75;;;;;;;21.60;67.55;96798.75;5054845;28;20178;-68
2022/08/03 00:06:35;;;;;;;107.38;101.47;;;;;;;21.48;68.45;96795.78;5055125;28;20194;-67
2022/08/03 00:09:02;;;;;;;149.55;141.63;;;;;;;21.56;68.50;96800.44;5053400;28;20555;-68
2022/08/03 00:11:28;;;;;;;191.38;181.50;;;;;;;21.61;67.71;96794.22;5054495;28;20220;-68
2022/08/03 00:13:53;;;;;;;207.70;196.80;;;;;;;21.63;67.70;96800.03;5054521;28;20194;-68
2022/08/03 00:16:19;;;;;;;205.85;195.07;;;;;;;21.45;68.28;96794.53;5054612;28;20186;-68
2022/08/03 00:18:44;;;;;;;192.38;182.18;;;;;;;21.43;68.61;96795.88;5054634;28;20185;-67
2022/08/03 00:21:10;;;;;;;169.07;160.02;;;;;;;21.36;69.33;96792.81;5054388;28;20190;-68
2022/08/03 00:23:36;;;;;;;208.20;197.02;;;;;;;21.40;69.46;96788.50;5054656;28;20566;-68
2022/08/03 00:26:02;;;;;;;253.90;240.27;;;;;;;21.27;69.74;96797.25;5054613;28;20190;-68
2022/08/03 00:28:27;;;;;;;351.67;332.23;;;;;;;21.27;70.07;96792.72;5054231;28;20194;-68
2022/08/03 00:30:54;;;;;;;434.00;409.30;;;;;;;21.17;70.46;96786.78;5053750;28;20213;-68
2022/08/03 00:33:20;;;;;;;589.22;554.15;;;;;;;21.29;70.05;96789.75;5052271;28;20188;-69
2022/08/03 00:35:46;;;;;;;675.05;633.33;;;;;;;21.04;71.08;96788.28;5042707;28;20201;-68
2022/08/03 00:38:11;;;;;;;715.28;669.25;;;;;;;21.02;71.20;96783.25;5053984;28;20562;-69
2022/08/03 00:40:37;;;;;;;781.45;729.90;;;;;;;21.05;71.11;96779.22;5052916;28;20593;-68
2022/08/03 00:43:04;;;;;;;803.30;749.17;;;;;;;21.18;70.55;96783.78;5052946;28;20232;-69
2022/08/03 00:45:35;;;;;;;828.22;771.60;;;;;;;21.14;70.71;96778.28;5053897;28;20186;-69
2022/08/03 00:48:03;;;;;;;836.10;777.97;;;;;;;21.14;70.57;96780.94;5053914;28;20265;-68
2022/08/03 00:50:33;;;;;;;831.72;773.85;;;;;;;21.10;70.70;96776.47;5052851;28;20210;-68
2022/08/03 00:53:00;;;;;;;796.28;741.40;;;;;;;20.95;71.62;96776.72;5054223;28;20231;-69
2022/08/03 00:55:25;;;;;;;682.10;638.17;;;;;;;20.93;71.85;96781.56;5053737;28;20592;-69
2022/08/03 00:57:52;;;;;;;367.85;347.17;;;;;;;21.13;71.52;96775.84;5053693;28;20182;-68
2022/08/03 01:00:20;;;;;;;236.82;224.60;;;;;;;21.04;71.93;96777.63;5053866;28;20327;-68
2022/08/03 01:02:46;;;;;;;181.68;171.95;;;;;;;20.85;72.67;96785.66;5053669;28;20189;-68
2022/08/03 01:05:12;;;;;;;160.48;152.00;;;;;;;20.86;73.07;96781.94;5053144;28;20186;-68
2022/08/03 01:08:11;;;;;;;182.23;172.68;;;;;;;20.71;73.89;96782.97;5053810;28;20193;-69
2022/08/03 01:10:45;;;;;;;222.65;210.88;;;;;;;20.64;74.72;96785.22;5052917;28;20205;-68
2022/08/03 01:13:23;;;;;;;301.02;284.73;;;;;;;20.68;74.38;96778.22;5053265;28;20196;-69
2022/08/03 01:16:22;;;;;;;329.30;311.02;;;;;;;20.76;73.83;96779.44;5053967;28;20631;-68
2022/08/03 01:19:08;;;;;;;359.80;339.25;;;;;;;20.64;74.49;96779.09;5049264;28;20360;-69
2022/08/03 01:21:59;;;;;;;357.88;337.48;;;;;;;20.79;74.14;96778.84;5053226;28;20627;-68
2022/08/03 01:24:59;;;;;;;343.80;324.27;;;;;;;20.81;73.85;96768.69;5053160;28;20552;-69
2022/08/03 01:27:39;;;;;;;328.10;309.75;;;;;;;20.61;74.67;96766.38;5051984;28;20690;-68
2022/08/03 01:30:07;;;;;;;285.45;269.55;;;;;;;20.50;75.29;96765.75;5053157;28;20201;-69
2022/08/03 01:32:45;;;;;;;261.75;247.32;;;;;;;20.51;75.22;96758.50;5052575;28;20220;-69
2022/08/03 01:35:19;;;;;;;282.85;267.27;;;;;;;20.50;75.25;96764.94;5052618;28;20178;-69
2022/08/03 01:37:56;;;;;;;279.35;263.90;;;;;;;20.52;74.68;96763.56;5066048;28;20644;-68
2022/08/03 01:40:24;;;;;;;250.68;237.15;;;;;;;20.53;74.89;96754.50;5052988;28;20291;-68
2022/08/03 01:42:51;;;;;;;224.38;212.25;;;;;;;20.64;74.16;96757.78;5052699;28;20319;-68
2022/08/03 01:45:17;;;;;;;218.48;206.75;;;;;;;20.60;74.28;96756.78;5052360;28;20284;-69
2022/08/03 01:47:48;;;;;;;195.40;185.00;;;;;;;20.47;74.68;96752.19;5052472;28;20189;-68
2022/08/03 01:50:17;;;;;;;169.50;160.32;;;;;;;20.30;75.79;96750.03;5045073;28;20206;-68
2022/08/03 01:52:44;;;;;;;142.82;135.27;;;;;;;20.25;76.07;96747.44;5052517;28;20204;-68
2022/08/03 01:55:11;;;;;;;101.63;96.15;;;;;;;20.25;76.32;96752.75;5052505;28;20346;-68
2022/08/03 01:57:39;;;;;;;83.35;78.50;;;;;;;20.22;76.68;96748.81;5052922;28;20178;-68
2022/08/03 02:00:08;;;;;;;87.65;82.88;;;;;;;20.23;76.43;96752.25;5051427;28;20198;-68
2022/08/03 02:02:35;;;;;;;72.55;68.40;;;;;;;20.15;76.63;96743.06;5052464;28;20189;-68
2022/08/03 02:05:04;;;;;;;69.18;65.38;;;;;;;20.20;76.82;96755.50;5052338;28;20647;-69
2022/08/03 02:07:31;;;;;;;68.88;64.93;;;;;;;20.23;77.23;96744.28;5052513;28;20269;-69
2022/08/03 02:09:58;;;;;;;70.85;67.00;;;;;;;20.34;76.62;96743.84;5052525;28;20651;-68
2022/08/03 02:12:26;;;;;;;68.72;64.93;;;;;;;20.22;77.17;96746.16;5051838;28;20213;-68
2022/08/03 02:14:53;;;;;;;89.82;84.90;;;;;;;20.33;76.75;96749.50;5052621;28;20194;-68
2022/08/03 02:17:20;;;;;;;130.77;123.82;;;;;;;20.21;77.22;96746.44;5052656;28;20232;-68
2022/08/03 02:19:47;;;;;;;171.43;161.95;;;;;;;20.10;78.56;96750.34;5052111;28;20186;-69
2022/08/03 02:22:14;;;;;;;51.85;48.83;;;;;;;20.15;78.78;96751.06;5052127;28;20276;-68
2022/08/03 02:24:39;;;;;;;34.25;32.35;;;;;;;19.91;80.47;96743.13;5052343;28;20196;-68
2022/08/03 02:27:12;;;;;;;40.65;38.22;;;;;;;20.19;78.94;96748.59;5052554;28;20273;-68
2022/08/03 02:29:40;;;;;;;46.85;44.10;;;;;;;19.91;80.68;96753.78;5052411;28;20178;-68
2022/08/03 02:32:09;;;;;;;110.13;104.10;;;;;;;19.77;81.75;96750.25;5053563;28;20214;-69
2022/08/03 02:34:35;;;;;;;113.85;107.70;;;;;;;19.64;82.76;96755.47;5056216;28;20690;-69
2022/08/03 02:37:04;;;;;;;41.28;39.00;;;;;;;19.90;81.31;96756.72;5069159;28;20585;-68
2022/08/03 02:39:34;;;;;;;33.05;31.05;;;;;;;19.89;81.26;96755.16;5056447;28;20198;-68
2022/08/03 02:42:04;;;;;;;47.75;45.08;;;;;;;19.80;81.80;96754.19;5056352;28;20547;-68
2022/08/03 02:44:31;;;;;;;53.00;50.03;;;;;;;19.58;82.95;96752.06;5056383;28;20178;-69
2022/08/03 02:47:01;;;;;;;55.15;52.05;;;;;;;19.62;83.26;96746.97;5055247;28;20185;-68
2022/08/03 02:49:28;;;;;;;70.47;66.57;;;;;;;19.47;84.19;96747.94;5054850;28;20181;-68
2022/08/03 02:51:56;;;;;;;78.22;73.93;;;;;;;19.66;83.02;96746.13;5056079;28;20388;-66
2022/08/03 02:54:23;;;;;;;81.38;76.90;;;;;;;19.39;84.88;96741.34;5055887;28;20514;-67
2022/08/03 02:56:50;;;;;;;89.22;84.25;;;;;;;19.59;83.85;96743.03;5055623;28;20680;-67
2022/08/03 02:59:17;;;;;;;99.57;94.22;;;;;;;19.65;83.42;96746.41;5055763;28;20198;-67
2022/08/03 03:01:44;;;;;;;118.45;111.88;;;;;;;19.58;83.96;96749.41;5055892;28;20186;-67
2022/08/03 03:04:10;;;;;;;146.38;138.48;;;;;;;19.39;85.27;96746.66;5055712;28;20178;-67
2022/08/03 03:06:36;;;;;;;160.80;151.77;;;;;;;19.29;86.01;96735.34;5055459;28;20181;-67
2022/08/03 03:09:02;;;;;;;176.25;166.63;;;;;;;19.43;85.24;96747.69;5055073;28;20201;-67
2022/08/03 03:11:29;;;;;;;164.70;155.65;;;;;;;19.50;84.87;96745.50;5055536;28;20689;-67
2022/08/03 03:13:56;;;;;;;147.20;139.10;;;;;;;19.50;85.01;96742.84;5055767;28;20205;-67
2022/08/03 03:16:24;;;;;;;128.10;121.10;;;;;;;19.48;84.71;96742.34;5055560;28;20178;-67
2022/08/03 03:18:50;;;;;;;104.85;99.10;;;;;;;19.28;86.19;96741.78;5055969;28;20269;-67
2022/08/03 03:21:18;;;;;;;76.95;72.68;;;;;;;19.29;86.22;96738.81;5055453;28;20182;-67
2022/08/03 03:23:45;;;;;;;50.25;47.47;;;;;;;19.15;87.24;96739.78;5055785;28;20190;-66
2022/08/03 03:26:12;;;;;;;47.95;45.20;;;;;;;19.26;86.24;96736.72;5055377;28;20273;-67
2022/08/03 03:28:38;;;;;;;49.28;46.33;;;;;;;19.11;87.49;96732.34;5055363;28;20291;-67
2022/08/03 03:31:05;;;;;;;50.20;47.42;;;;;;;19.18;87.60;96734.69;5055323;28;20556;-66
2022/08/03 03:33:32;;;;;;;44.90;42.22;;;;;;;19.22;87.78;96729.59;5055006;28;20265;-68
2022/08/03 03:35:58;;;;;;;41.30;38.95;;;;;;;19.15;88.39;96731.81;5058028;28;20186;-67
2022/08/03 03:38:24;;;;;;;33.35;31.45;;;;;;;19.04;89.60;96731.13;5055349;28;20205;-67
2022/08/03 03:40:49;;;;;;;29.40;27.48;;;;;;;19.46;87.23;96741.03;5055356;28;20558;-67
2022/08/03 03:43:17;;;;;;;25.15;23.42;;;;;;;19.47;86.86;96737.31;5054277;28;20265;-67
2022/08/03 03:45:43;;;;;;;30.45;28.60;;;;;;;19.37;87.45;96740.06;5055183;28;20522;-67
2022/08/03 03:48:08;;;;;;;28.83;27.05;;;;;;;19.17;88.57;96734.97;5054320;28;20201;-67
2022/08/03 03:50:36;;;;;;;32.03;29.80;;;;;;;19.52;86.61;96734.59;5054451;28;20213;-67
2022/08/03 03:53:03;;;;;;;33.17;30.90;;;;;;;19.24;87.95;96736.22;5054952;28;20178;-67
2022/08/03 03:55:29;;;;;;;32.40;30.52;;;;;;;19.25;87.85;96737.78;5039373;28;20277;-67
2022/08/03 03:57:54;;;;;;;33.83;31.75;;;;;;;19.17;88.28;96734.97;5054725;28;20204;-67
2022/08/03 04:00:20;;;;;;;33.35;31.33;;;;;;;19.13;88.15;96728.63;5054936;28;20190;-67
2022/08/03 04:02:46;;;;;;;32.25;30.33;;;;;;;19.20;87.35;96732.53;5055003;28;20186;-67
2022/08/03 04:11:39;;;;;;;45.72;43.13;;;;;;;19.12;88.00;96727.84;5054219;28;20720;-66
2022/08/03 04:14:18;;;;;;;64.97;61.25;;;;;;;19.21;88.37;96739.44;5054645;28;20186;-67
2022/08/03 04:16:47;;;;;;;39.92;37.50;;;;;;;19.09;89.70;96733.72;5054709;28;20205;-66
2022/08/03 04:19:18;;;;;;;25.85;24.27;;;;;;;19.12;89.79;96743.78;5054201;28;20182;-66
2022/08/03 04:21:48;;;;;;;26.63;24.83;;;;;;;19.18;88.94;96736.53;5054902;28;20221;-66
2022/08/03 04:24:14;;;;;;;26.08;24.42;;;;;;;19.32;87.99;96742.78;5055072;28;20582;-67
2022/08/03 04:26:43;;;;;;;28.55;26.75;;;;;;;19.21;88.43;96742.09;5054563;28;20182;-69
2022/08/03 04:29:10;;;;;;;37.42;35.03;;;;;;;19.36;87.60;96743.78;5054140;28;20190;-68
2022/08/03 04:31:38;;;;;;;53.92;50.83;;;;;;;19.32;88.12;96748.09;5052954;28;20220;-66
2022/08/03 04:34:04;;;;;;;44.70;41.92;;;;;;;19.26;88.08;96749.22;5053896;28;20205;-67
2022/08/03 04:36:32;;;;;;;34.05;32.03;;;;;;;19.23;87.75;96745.25;5054445;28;20651;-67
2022/08/03 04:39:15;;;;;;;33.35;31.15;;;;;;;19.46;87.08;96760.44;5053937;28;20193;-67
2022/08/03 04:41:43;;;;;;;33.97;31.98;;;;;;;19.36;87.21;96747.25;5054126;28;20231;-67
2022/08/03 04:44:10;;;;;;;36.72;34.67;;;;;;;19.39;87.68;96754.63;5054083;28;20190;-67
2022/08/03 04:46:38;;;;;;;35.55;33.35;;;;;;;19.64;85.43;96758.91;5053701;28;20178;-68
2022/08/03 04:49:05;;;;;;;33.30;31.45;;;;;;;19.51;86.48;96756.94;5053031;28;20186;-67
2022/08/03 04:51:33;;;;;;;39.38;37.17;;;;;;;19.21;87.85;96763.38;5053630;28;20198;-67
2022/08/03 04:53:59;;;;;;;60.95;57.50;;;;;;;19.44;86.71;96762.59;5053644;28;20642;-67
2022/08/03 04:56:24;;;;;;;77.25;72.93;;;;;;;19.65;85.46;96762.38;5053505;28;20201;-67
2022/08/03 04:58:49;;;;;;;81.43;76.88;;;;;;;19.98;83.02;96769.38;5053688;28;20194;-69
2022/08/03 05:01:15;;;;;;;78.72;74.38;;;;;;;19.92;83.23;96768.66;5053164;28;20268;-68
2022/08/03 05:03:40;;;;;;;152.05;144.05;;;;;;;20.11;82.47;96766.03;5054028;28;20190;-67
2022/08/03 05:06:06;;;;;;;140.63;133.10;;;;;;;20.56;80.70;96769.88;5053427;28;20211;-67
2022/08/03 05:08:31;;;;;;;137.32;129.88;;;;;;;21.03;77.70;96765.38;5053561;28;20216;-67
2022/08/03 05:10:57;;;;;;;181.77;171.98;;;;;;;21.29;77.18;96761.19;5053564;28;20632;-67
2022/08/03 05:13:22;;;;;;;209.90;198.35;;;;;;;21.48;76.09;96764.56;5053387;28;20208;-68
2022/08/03 05:15:48;;;;;;;325.05;306.88;;;;;;;21.70;74.91;96758.53;5053636;28;20193;-68
2022/08/03 05:18:13;;;;;;;203.77;192.63;;;;;;;22.33;71.69;96761.22;5052991;28;20247;-69
2022/08/03 05:20:39;;;;;;;162.35;153.40;;;;;;;22.66;70.49;96764.44;5053503;28;20193;-67
2022/08/03 05:23:04;;;;;;;123.63;116.82;;;;;;;22.23;71.67;96763.31;5053448;28;20623;-67
2022/08/03 05:25:29;;;;;;;117.53;111.07;;;;;;;22.86;68.94;96773.06;5053204;28;20193;-66
2022/08/03 05:27:55;;;;;;;120.40;113.95;;;;;;;23.13;67.86;96764.88;5052883;28;20698;-67
2022/08/03 05:30:20;;;;;;;86.55;81.72;;;;;;;23.40;67.04;96775.41;5053195;28;20210;-67
2022/08/03 05:32:46;;;;;;;80.65;76.20;;;;;;;23.38;66.47;96774.13;5053231;28;20259;-67
2022/08/03 05:35:11;;;;;;;57.47;54.33;;;;;;;23.62;65.85;96777.25;5055648;28;20220;-67
2022/08/03 05:37:36;;;;;;;50.60;47.75;;;;;;;24.06;64.15;96775.47;5052959;28;20534;-67
2022/08/03 05:40:03;;;;;;;45.75;43.08;;;;;;;23.86;65.38;96782.19;5053080;28;20193;-66
2022/08/03 05:42:29;;;;;;;48.03;45.38;;;;;;;23.93;64.86;96777.16;5052666;28;20217;-66
2022/08/03 05:44:54;;;;;;;43.85;41.35;;;;;;;23.75;66.57;96778.22;5052563;28;20198;-65
2022/08/03 05:47:19;;;;;;;39.90;37.55;;;;;;;23.86;65.35;96785.66;5052319;28;20182;-65
2022/08/03 05:49:45;;;;;;;38.05;35.92;;;;;;;24.04;64.12;96776.56;5051531;28;20627;-65
2022/08/03 05:52:10;;;;;;;46.40;43.58;;;;;;;24.15;63.71;96777.03;5052799;28;20286;-66
2022/08/03 05:54:36;;;;;;;70.05;66.43;;;;;;;24.51;62.20;96773.31;5053040;28;20264;-65
2022/08/03 05:57:01;;;;;;;178.52;169.00;;;;;;;24.70;61.21;96774.53;5052874;28;20192;-65
2022/08/03 05:59:26;;;;;;;146.82;139.07;;;;;;;25.00;60.38;96777.38;5051987;28;20537;-66
2022/08/03 06:01:52;;;;;;;103.38;97.97;;;;;;;24.93;60.39;96774.38;5052292;28;20178;-65
2022/08/03 06:04:17;;;;;;;87.55;82.95;;;;;;;24.84;60.09;96777.06;5052604;28;20184;-65
2022/08/03 06:06:43;;;;;;;74.28;70.22;;;;;;;24.79;60.05;96778.03;5052741;28;20223;-65
2022/08/03 06:09:12;;;;;;;69.20;65.57;;;;;;;25.30;59.10;96770.94;5053002;28;20649;-66
2022/08/03 06:11:38;;;;;;;54.53;51.47;;;;;;;25.06;59.03;96778.78;5052681;28;20213;-66
2022/08/03 06:14:03;;;;;;;49.78;46.95;;;;;;;25.25;58.21;96779.97;5051081;28;20662;-65
2022/08/03 06:16:28;;;;;;;44.33;41.70;;;;;;;25.43;57.78;96779.91;5052553;28;20178;-64
2022/08/03 06:18:54;;;;;;;54.50;51.50;;;;;;;25.40;57.20;96777.88;5052401;28;20596;-64
2022/08/03 06:21:19;;;;;;;66.32;62.80;;;;;;;25.51;56.48;96774.53;5051792;28;20181;-66
2022/08/03 06:23:46;;;;;;;39.65;37.38;;;;;;;25.47;56.73;96781.63;5051092;28;20536;-66
2022/08/03 06:26:12;;;;;;;64.95;61.42;;;;;;;25.47;56.43;96776.25;5051747;28;20534;-64
2022/08/03 06:28:37;;;;;;;94.18;89.03;;;;;;;25.74;55.31;96783.13;5052082;28;20190;-64
2022/08/03 06:31:03;;;;;;;92.30;87.40;;;;;;;25.72;54.93;96776.50;5052271;28;20638;-64
2022/08/03 06:33:29;;;;;;;66.25;62.60;;;;;;;25.63;55.52;96777.31;5055056;28;20185;-65
2022/08/03 06:35:54;;;;;;;126.68;120.10;;;;;;;25.70;54.05;96782.19;5065678;28;20523;-65
2022/08/03 06:38:19;;;;;;;109.05;103.10;;;;;;;25.98;53.83;96787.88;5051888;28;20189;-65
2022/08/03 06:40:45;;;;;;;103.10;97.47;;;;;;;25.90;54.12;96780.69;5052221;28;20196;-65
2022/08/03 06:43:12;;;;;;;97.43;92.18;;;;;;;26.08;53.50;96784.84;5051674;28;20693;-66
2022/08/03 06:45:38;;;;;;;114.65;108.57;;;;;;;25.96;53.67;96790.13;5051755;28;20642;-64
2022/08/03 06:48:08;;;;;;;120.88;114.13;;;;;;;25.67;54.16;96780.94;5050957;28;20190;-70
2022/08/03 06:50:35;;;;;;;107.18;101.25;;;;;;;25.84;54.16;96784.66;5051862;28;20248;-65
2022/08/03 06:53:01;;;;;;;103.13;97.55;;;;;;;25.99;53.70;96789.47;5052085;28;20186;-64
2022/08/03 06:55:27;;;;;;;98.28;92.28;;;;;;;26.06;54.16;96795.13;5051688;28;20551;-64
2022/08/03 06:57:52;;;;;;;93.82;88.65;;;;;;;26.40;53.44;96794.91;5050515;28;20186;-64
2022/08/03 07:00:18;;;;;;;106.15;99.97;;;;;;;26.39;53.26;96790.66;5049547;28;20190;-65
2022/08/03 07:02:43;;;;;;;134.00;126.97;;;;;;;26.59;52.87;96791.75;5048934;28;20673;-64
2022/08/03 07:05:09;;;;;;;155.60;147.65;;;;;;;26.78;52.45;96793.94;5049854;28;20235;-64
2022/08/03 07:07:35;;;;;;;217.38;206.10;;;;;;;26.60;52.61;96800.59;5051242;28;20193;-65
2022/08/03 07:10:01;;;;;;;280.60;265.73;;;;;;;26.67;52.50;96798.97;5050889;28;20631;-64
2022/08/03 07:12:28;;;;;;;324.10;306.48;;;;;;;26.78;52.34;96804.72;5050692;28;20270;-65
2022/08/03 07:14:54;;;;;;;318.10;300.98;;;;;;;26.91;52.37;96801.00;5052020;28;20193;-64
2022/08/03 07:17:20;;;;;;;350.30;331.63;;;;;;;27.01;51.93;96797.09;5051918;28;20182;-64
2022/08/03 07:19:45;;;;;;;374.42;354.67;;;;;;;26.81;52.42;96802.13;5055582;28;20537;-64
2022/08/03 07:22:11;;;;;;;389.25;368.48;;;;;;;26.97;52.06;96796.19;5055519;28;20627;-64
2022/08/03 07:24:36;;;;;;;356.17;337.45;;;;;;;27.28;51.15;96789.19;5055713;28;20182;-64
2022/08/03 07:27:02;;;;;;;278.08;263.42;;;;;;;27.21;50.81;96798.94;5055483;28;20186;-64
2022/08/03 07:29:28;;;;;;;291.52;275.88;;;;;;;27.12;51.18;96793.66;5055489;28;20635;-66
2022/08/03 07:31:53;;;;;;;379.90;358.88;;;;;;;27.13;50.08;96787.16;5051114;28;20267;-65
2022/08/03 07:34:18;;;;;;;415.52;392.33;;;;;;;27.18;49.87;96796.91;5051406;28;20193;-64
2022/08/03 07:36:44;;;;;;;350.05;331.27;;;;;;;27.41;49.70;96795.41;5054853;28;20267;-64
2022/08/03 07:39:09;;;;;;;277.42;262.55;;;;;;;27.47;50.07;96802.13;5055230;28;20248;-65
2022/08/03 07:41:35;;;;;;;348.98;330.08;;;;;;;27.53;49.88;96800.81;5054255;28;20182;-67
2022/08/03 07:44:00;;;;;;;658.83;614.97;;;;;;;27.86;48.47;96795.34;5052830;28;20749;-65
2022/08/03 07:46:25;;;;;;;725.10;675.67;;;;;;;27.73;48.71;96806.44;5053714;28;20186;-65
2022/08/03 07:48:51;;;;;;;740.42;691.90;;;;;;;27.90;48.43;96800.81;5050212;28;20742;-66
2022/08/03 07:51:17;;;;;;;693.55;645.05;;;;;;;28.14;48.88;96808.13;5054237;28;20205;-65
2022/08/03 07:53:42;;;;;;;747.50;696.40;;;;;;;28.20;48.19;96804.09;5054186;28;20533;-65
2022/08/03 07:56:08;;;;;;;623.47;583.75;;;;;;;28.17;47.78;96796.66;5054434;28;20626;-65
2022/08/03 07:58:35;;;;;;;473.95;444.63;;;;;;;28.37;47.16;96793.03;5054456;28;20224;-65
2022/08/03 08:01:00;;;;;;;472.02;445.08;;;;;;;28.17;47.58;96789.38;5053949;28;20610;-66
2022/08/03 08:03:25;;;;;;;514.80;486.30;;;;;;;28.55;46.69;96799.72;5053052;28;20216;-64
2022/08/03 08:05:52;;;;;;;313.10;296.50;;;;;;;28.69;44.31;96802.03;5054626;28;20186;-64
2022/08/03 08:08:18;;;;;;;436.13;413.65;;;;;;;28.89;45.26;96798.38;5054323;28;20204;-65
2022/08/03 08:10:43;;;;;;;384.52;365.02;;;;;;;28.87;45.29;96792.53;5053595;28;20630;-65
2022/08/03 08:13:09;;;;;;;436.95;414.35;;;;;;;28.71;46.26;96794.38;5055006;28;20224;-65
2022/08/03 08:15:34;;;;;;;468.00;443.42;;;;;;;28.43;47.32;96794.34;5053707;28;20186;-65
2022/08/03 08:18:01;;;;;;;399.42;378.75;;;;;;;28.47;45.49;96789.88;5054322;28;20259;-67
2022/08/03 08:20:29;;;;;;;273.13;259.30;;;;;;;28.77;43.73;96793.03;5053097;28;20277;-65
2022/08/03 08:22:56;;;;;;;263.75;250.13;;;;;;;28.82;44.17;96796.28;5054298;28;20273;-65
2022/08/03 08:25:22;;;;;;;259.65;246.73;;;;;;;28.72;44.57;96795.94;5053545;28;20174;-66
2022/08/03 08:27:48;;;;;;;254.50;241.75;;;;;;;28.93;44.05;96801.97;5054160;28;20197;-66
2022/08/03 08:30:17;;;;;;;232.05;220.48;;;;;;;29.00;43.98;96795.97;5051792;28;20588;-66
2022/08/03 08:32:43;;;;;;;243.00;230.95;;;;;;;29.10;44.16;96790.84;5053904;28;20178;-66
2022/08/03 08:35:10;;;;;;;200.60;190.70;;;;;;;28.80;45.34;96792.38;5054244;28;20186;-65
2022/08/03 08:37:36;;;;;;;153.13;145.60;;;;;;;28.77;43.05;96796.53;5054568;28;20182;-66
2022/08/03 08:40:02;;;;;;;120.95;114.93;;;;;;;28.95;43.47;96794.31;5053839;28;20244;-65
2022/08/03 08:42:27;;;;;;;120.72;114.78;;;;;;;28.58;43.87;96790.16;5053051;28;20226;-65
2022/08/03 08:44:54;;;;;;;159.63;151.82;;;;;;;28.71;44.68;96797.06;5053243;28;20595;-65
2022/08/03 08:47:23;;;;;;;122.10;116.05;;;;;;;28.93;43.79;96796.56;5053622;28;20265;-65
2022/08/03 08:49:52;;;;;;;106.05;100.93;;;;;;;29.03;43.56;96787.19;5052357;28;20198;-67
2022/08/03 08:52:22;;;;;;;62.55;59.50;;;;;;;29.12;42.50;96791.31;5053604;28;20208;-65
2022/08/03 08:54:48;;;;;;;55.15;52.50;;;;;;;29.30;42.58;96791.75;5054035;28;20653;-65
2022/08/03 08:57:15;;;;;;;55.38;52.60;;;;;;;29.15;42.18;96789.81;5054031;28;20220;-65
2022/08/03 08:59:43;;;;;;;35.63;33.90;;;;;;;29.42;41.87;96785.53;5052334;28;20198;-66
2022/08/03 09:02:09;;;;;;;40.10;38.13;;;;;;;29.15;43.13;96789.81;5052644;28;20193;-65
2022/08/03 09:04:37;;;;;;;32.45;30.83;;;;;;;29.42;43.46;96799.03;5053334;28;20184;-65
2022/08/03 09:07:02;;;;;;;36.15;34.35;;;;;;;29.50;42.76;96795.38;5052478;28;20619;-65
2022/08/03 09:09:29;;;;;;;26.23;24.90;;;;;;;29.73;42.42;96793.63;5053334;28;20229;-65
2022/08/03 09:11:55;;;;;;;88.53;84.18;;;;;;;29.52;42.56;96796.59;5052731;28;20249;-67
2022/08/03 09:14:20;;;;;;;139.25;132.57;;;;;;;29.45;42.08;96792.91;5052633;28;20229;-65
2022/08/03 09:16:59;;;;;;;152.55;145.18;;;;;;;29.53;41.90;96789.28;5053334;28;20182;-65
2022/08/03 09:19:24;;;;;;;310.95;295.92;;;;;;;29.52;41.56;96790.41;5051996;28;20265;-66
2022/08/03 09:22:06;;;;;;;315.85;300.77;;;;;;;29.45;41.26;96788.31;5053241;28;20722;-65
2022/08/03 09:24:32;;;;;;;328.83;313.05;;;;;;;28.89;42.47;96785.69;5052783;28;20178;-65
2022/08/03 09:26:57;;;;;;;348.77;332.05;;;;;;;28.96;42.19;96784.31;5052684;28;20193;-67
2022/08/03 09:29:23;;;;;;;200.60;191.13;;;;;;;28.79;44.03;96785.38;5051257;28;20653;-64
2022/08/03 09:32:00;;;;;;;135.02;128.60;;;;;;;29.21;43.12;96783.03;5052563;28;20224;-65
2022/08/03 09:34:27;;;;;;;315.98;300.98;;;;;;;29.49;41.54;96781.06;5047928;28;20187;-64
2022/08/03 09:36:53;;;;;;;329.08;313.58;;;;;;;28.82;41.45;96785.47;5052548;28;20178;-65
2022/08/03 09:39:22;;;;;;;344.75;328.45;;;;;;;29.07;41.74;96782.66;5052475;28;20185;-64
2022/08/03 09:42:03;;;;;;;337.23;321.10;;;;;;;28.63;43.25;96782.63;5052096;28;20186;-64
2022/08/03 09:44:34;;;;;;;333.00;317.15;;;;;;;28.89;42.33;96780.28;5052614;28;20193;-64
2022/08/03 09:46:59;;;;;;;327.85;312.13;;;;;;;29.21;41.84;96786.50;5051984;28;20276;-65
2022/08/03 09:49:25;;;;;;;314.70;299.77;;;;;;;29.51;40.80;96780.72;5051102;28;20261;-67
2022/08/03 09:51:50;;;;;;;445.70;423.88;;;;;;;29.50;39.83;96787.25;5051715;28;20564;-66
2022/08/03 09:54:42;;;;;;;403.20;383.98;;;;;;;29.61;40.27;96780.19;5050463;28;20268;-64
2022/08/03 09:57:19;;;;;;;355.75;338.15;;;;;;;29.50;37.79;96777.25;5049867;28;20198;-64
2022/08/03 09:59:44;;;;;;;641.75;607.70;;;;;;;29.27;38.98;96781.63;5051955;28;20629;-67
2022/08/03 10:02:23;;;;;;;709.20;669.47;;;;;;;29.26;39.43;96777.38;5051454;28;20186;-66
2022/08/03 10:04:51;;;;;;;700.92;661.45;;;;;;;29.33;39.92;96775.66;5032781;28;20269;-64
2022/08/03 10:07:18;;;;;;;658.35;622.28;;;;;;;28.87;39.67;96774.44;5050264;28;20539;-64
2022/08/03 10:10:00;;;;;;;771.20;725.95;;;;;;;28.60;40.25;96769.81;5052575;28;20186;-64
2022/08/03 10:12:26;;;;;;;499.67;472.30;;;;;;;28.60;39.87;96769.81;5051486;28;20245;-64
2022/08/03 10:14:52;;;;;;;850.40;796.55;;;;;;;28.76;40.59;96770.66;5051931;28;20194;-64
2022/08/03 10:17:19;;;;;;;797.63;749.58;;;;;;;28.16;42.14;96770.81;5052152;28;20186;-64
2022/08/03 10:19:45;;;;;;;709.25;668.10;;;;;;;28.56;41.27;96765.44;5051181;28;20234;-64
2022/08/03 10:22:27;;;;;;;685.40;646.15;;;;;;;28.14;42.04;96768.50;5052171;28;20188;-64
2022/08/03 10:25:01;;;;;;;666.75;627.50;;;;;;;28.41;40.98;96773.16;5051114;28;20275;-64
2022/08/03 10:27:31;;;;;;;315.88;300.90;;;;;;;28.73;43.28;96765.97;5052177;28;20564;-64
2022/08/03 10:30:00;;;;;;;510.00;482.63;;;;;;;28.52;41.41;96768.84;5052034;28;20182;-64
2022/08/03 10:32:41;;;;;;;702.90;661.05;;;;;;;28.18;41.44;96760.50;5059774;28;20209;-64
2022/08/03 10:35:10;;;;;;;537.35;509.15;;;;;;;28.87;41.28;96755.53;5052333;28;20543;-64
2022/08/03 10:37:44;;;;;;;698.53;657.38;;;;;;;28.82;40.21;96752.31;5052009;28;20697;-66
2022/08/03 10:40:14;;;;;;;747.08;701.90;;;;;;;28.57;41.49;96751.63;5050877;28;20177;-64
2022/08/03 10:42:42;;;;;;;782.70;734.28;;;;;;;28.48;40.41;96745.56;5045513;28;20244;-64
2022/08/03 10:45:18;;;;;;;645.72;608.40;;;;;;;28.79;39.45;96744.91;5049919;28;20182;-64
2022/08/03 10:47:44;;;;;;;479.80;452.05;;;;;;;28.99;38.80;96751.22;5047070;28;20646;-64
2022/08/03 10:50:11;;;;;;;451.23;426.77;;;;;;;29.30;37.99;96743.94;5046105;28;20192;-65
2022/08/03 10:53:05;;;;;;;481.58;456.73;;;;;;;29.22;37.46;96736.78;5052351;28;20185;-65
2022/08/03 10:58:37;;;;;;;436.45;413.63;;;;;;;28.87;38.29;96735.88;5055386;28;20589;-65
2022/08/03 11:01:07;;;;;;;441.40;418.80;;;;;;;29.22;37.13;96733.28;5054809;28;20201;-65
2022/08/03 11:03:53;;;;;;;287.52;273.20;;;;;;;29.41;36.17;96732.63;5054296;28;20184;-66
2022/08/03 11:06:20;;;;;;;182.20;173.00;;;;;;;29.66;35.76;96734.00;5055362;28;20606;-65
2022/08/03 11:08:47;;;;;;;148.15;140.60;;;;;;;29.70;36.16;96737.59;5056152;28;20631;-66
2022/08/03 11:11:16;;;;;;;137.63;130.75;;;;;;;29.68;35.94;96727.13;5055746;28;20218;-66
2022/08/03 11:13:56;;;;;;;138.57;131.65;;;;;;;29.62;36.57;96733.91;5055556;28;20536;-66
2022/08/03 11:16:22;;;;;;;158.07;150.07;;;;;;;29.96;36.35;96734.31;5055432;28;20186;-65
2022/08/03 11:18:59;;;;;;;135.75;129.02;;;;;;;29.88;36.44;96722.53;5054316;28;20193;-66
2022/08/03 11:21:46;;;;;;;142.60;135.25;;;;;;;30.07;36.22;96722.59;5055123;28;20259;-66